sensor_id;sensor_type;location;lat;lon;timestamp;pressure;altitude;pressure_sealevel;temperature;humidity
63405;BME280;49541;57.840;12.306;2023-09-08T00:00:59;101658.72;;;16.94;100.00
63405;BME280;49541;57.840;12.306;2023-09-08T00:06:00;101651.31;;;16.69;100.00
63405;BME280;49541;57.840;12.306;2023-09-08T00:11:00;101641.00;;;16.64;100.00
63405;BME280;49541;57.840;12.306;2023-09-08T00:16:00;101640.28;;;16.62;100.00
63405;BME280;49541;57.840;12.306;2023-09-08T00:21:00;101647.38;;;16.63;100.00
63405;BME280;49541;57.840;12.306;2023-09-08T00:26:01;101649.25;;;16.53;100.00
63405;BME280;49541;57.840;12.306;2023-09-08T00:31:01;101649.25;;;16.43;100.00
63405;BME280;49541;57.840;12.306;2023-09-08T00:36:02;101652.69;;;16.35;100.00
63405;BME280;49541;57.840;12.306;2023-09-08T00:41:04;101652.13;;;16.42;100.00
63405;BME280;49541;57.840;12.306;2023-09-08T00:46:04;101649.44;;;16.42;100.00
63405;BME280;49541;57.840;12.306;2023-09-08T00:51:06;101638.25;;;16.46;100.00
63405;BME280;49541;57.840;12.306;2023-09-08T00:56:08;101639.13;;;16.27;100.00
63405;BME280;49541;57.840;12.306;2023-09-08T01:01:08;101635.59;;;16.27;100.00
63405;BME280;49541;57.840;12.306;2023-09-08T01:06:09;101631.34;;;16.34;100.00
63405;BME280;49541;57.840;12.306;2023-09-08T01:11:09;101630.63;;;16.32;100.00
63405;BME280;49541;57.840;12.306;2023-09-08T01:16:10;101644.44;;;16.47;100.00
63405;BME280;49541;57.840;12.306;2023-09-08T01:26:16;101639.03;;;16.00;100.00
63405;BME280;49541;57.840;12.306;2023-09-08T01:31:17;101633.66;;;16.09;100.00
63405;BME280;49541;57.840;12.306;2023-09-08T01:36:17;101634.91;;;16.15;100.00
63405;BME280;49541;57.840;12.306;2023-09-08T01:41:18;101630.00;;;16.01;100.00
63405;BME280;49541;57.840;12.306;2023-09-08T01:46:18;101640.88;;;15.99;100.00
63405;BME280;49541;57.840;12.306;2023-09-08T01:51:18;101631.28;;;15.77;100.00
63405;BME280;49541;57.840;12.306;2023-09-08T01:56:18;101632.13;;;16.07;100.00
63405;BME280;49541;57.840;12.306;2023-09-08T02:01:19;101633.13;;;15.86;100.00
63405;BME280;49541;57.840;12.306;2023-09-08T02:06:19;101622.81;;;15.72;100.00
63405;BME280;49541;57.840;12.306;2023-09-08T02:11:19;101632.56;;;15.73;100.00
63405;BME280;49541;57.840;12.306;2023-09-08T02:16:19;101621.25;;;15.79;100.00
63405;BME280;49541;57.840;12.306;2023-09-08T02:21:20;101615.03;;;15.79;100.00
63405;BME280;49541;57.840;12.306;2023-09-08T02:26:21;101616.16;;;15.86;100.00
63405;BME280;49541;57.840;12.306;2023-09-08T02:31:21;101611.22;;;15.81;100.00
63405;BME280;49541;57.840;12.306;2023-09-08T02:36:21;101602.19;;;15.72;100.00
63405;BME280;49541;57.840;12.306;2023-09-08T02:41:25;101602.16;;;15.63;100.00
63405;BME280;49541;57.840;12.306;2023-09-08T02:46:25;101594.25;;;15.71;100.00
63405;BME280;49541;57.840;12.306;2023-09-08T02:51:25;101591.00;;;15.57;100.00
63405;BME280;49541;57.840;12.306;2023-09-08T02:56:25;101589.44;;;15.65;100.00
63405;BME280;49541;57.840;12.306;2023-09-08T03:01:26;101597.34;;;15.56;100.00
63405;BME280;49541;57.840;12.306;2023-09-08T03:06:26;101593.53;;;15.59;100.00
63405;BME280;49541;57.840;12.306;2023-09-08T03:11:26;101587.47;;;15.67;100.00
63405;BME280;49541;57.840;12.306;2023-09-08T03:16:26;101586.34;;;15.60;100.00
63405;BME280;49541;57.840;12.306;2023-09-08T03:21:27;101575.59;;;15.30;100.00
63405;BME280;49541;57.840;12.306;2023-09-08T03:26:27;101580.94;;;15.21;100.00
63405;BME280;49541;57.840;12.306;2023-09-08T03:31:27;101578.13;;;15.12;100.00
63405;BME280;49541;57.840;12.306;2023-09-08T03:36:27;101569.66;;;15.27;100.00
63405;BME280;49541;57.840;12.306;2023-09-08T03:41:27;101573.50;;;15.34;100.00
63405;BME280;49541;57.840;12.306;2023-09-08T03:46:28;101576.44;;;15.60;100.00
63405;BME280;49541;57.840;12.306;2023-09-08T03:51:28;101571.88;;;15.02;100.00
63405;BME280;49541;57.840;12.306;2023-09-08T03:56:28;101575.59;;;15.69;100.00
63405;BME280;49541;57.840;12.306;2023-09-08T04:01:28;101559.63;;;15.58;100.00
63405;BME280;49541;57.840;12.306;2023-09-08T04:06:28;101564.00;;;15.10;100.00
63405;BME280;49541;57.840;12.306;2023-09-08T04:11:29;101563.34;;;14.78;100.00
63405;BME280;49541;57.840;12.306;2023-09-08T04:16:29;101571.00;;;14.51;100.00
63405;BME280;49541;57.840;12.306;2023-09-08T04:21:29;101563.25;;;14.89;100.00
63405;BME280;49541;57.840;12.306;2023-09-08T04:26:29;101557.78;;;15.20;100.00
63405;BME280;49541;57.840;12.306;2023-09-08T04:31:30;101549.84;;;14.89;100.00
63405;BME280;49541;57.840;12.306;2023-09-08T04:36:30;101554.28;;;14.59;100.00
63405;BME280;49541;57.840;12.306;2023-09-08T04:41:30;101557.94;;;15.18;100.00
63405;BME280;49541;57.840;12.306;2023-09-08T04:46:30;101547.63;;;15.52;100.00
63405;BME280;49541;57.840;12.306;2023-09-08T04:51:30;101544.94;;;15.33;100.00
63405;BME280;49541;57.840;12.306;2023-09-08T04:56:31;101538.16;;;15.29;100.00
63405;BME280;49541;57.840;12.306;2023-09-08T05:01:31;101555.13;;;14.60;100.00
63405;BME280;49541;57.840;12.306;2023-09-08T05:06:32;101562.75;;;14.64;100.00
63405;BME280;49541;57.840;12.306;2023-09-08T05:11:32;101559.66;;;14.59;100.00
63405;BME280;49541;57.840;12.306;2023-09-08T05:16:33;101564.41;;;14.56;100.00
63405;BME280;49541;57.840;12.306;2023-09-08T05:21:46;101561.13;;;14.21;100.00
63405;BME280;49541;57.840;12.306;2023-09-08T05:26:46;101568.19;;;14.22;100.00
63405;BME280;49541;57.840;12.306;2023-09-08T05:31:47;101566.47;;;14.11;100.00
63405;BME280;49541;57.840;12.306;2023-09-08T05:36:47;101565.13;;;14.06;100.00
63405;BME280;49541;57.840;12.306;2023-09-08T05:41:47;101572.94;;;13.88;100.00
63405;BME280;49541;57.840;12.306;2023-09-08T05:46:47;101581.66;;;14.11;100.00
63405;BME280;49541;57.840;12.306;2023-09-08T05:51:47;101584.00;;;14.25;100.00
63405;BME280;49541;57.840;12.306;2023-09-08T05:56:48;101577.66;;;14.26;100.00
63405;BME280;49541;57.840;12.306;2023-09-08T06:01:48;101586.03;;;14.43;100.00
63405;BME280;49541;57.840;12.306;2023-09-08T06:06:48;101579.13;;;14.71;100.00
63405;BME280;49541;57.840;12.306;2023-09-08T06:11:48;101579.66;;;15.05;100.00
63405;BME280;49541;57.840;12.306;2023-09-08T06:16:49;101574.44;;;15.13;100.00
63405;BME280;49541;57.840;12.306;2023-09-08T06:21:49;101586.63;;;15.27;100.00
63405;BME280;49541;57.840;12.306;2023-09-08T06:26:49;101580.97;;;15.69;100.00
63405;BME280;49541;57.840;12.306;2023-09-08T06:31:49;101580.66;;;16.02;100.00
63405;BME280;49541;57.840;12.306;2023-09-08T06:36:50;101574.97;;;16.14;100.00
63405;BME280;49541;57.840;12.306;2023-09-08T06:41:50;101588.78;;;16.29;100.00
63405;BME280;49541;57.840;12.306;2023-09-08T06:46:50;101583.97;;;16.33;100.00
63405;BME280;49541;57.840;12.306;2023-09-08T06:51:50;101583.69;;;16.64;100.00
63405;BME280;49541;57.840;12.306;2023-09-08T06:56:50;101590.69;;;16.84;100.00
63405;BME280;49541;57.840;12.306;2023-09-08T07:01:50;101566.66;;;16.83;100.00
63405;BME280;49541;57.840;12.306;2023-09-08T07:06:51;101582.97;;;16.71;100.00
63405;BME280;49541;57.840;12.306;2023-09-08T07:11:54;101571.00;;;17.29;100.00
63405;BME280;49541;57.840;12.306;2023-09-08T07:16:54;101554.47;;;17.42;100.00
63405;BME280;49541;57.840;12.306;2023-09-08T07:21:54;101556.63;;;17.20;100.00
63405;BME280;49541;57.840;12.306;2023-09-08T07:26:55;101567.75;;;16.90;100.00
63405;BME280;49541;57.840;12.306;2023-09-08T07:31:55;101567.00;;;16.97;100.00
63405;BME280;49541;57.840;12.306;2023-09-08T07:36:55;101569.72;;;17.51;100.00
63405;BME280;49541;57.840;12.306;2023-09-08T07:41:55;101553.69;;;17.50;100.00
63405;BME280;49541;57.840;12.306;2023-09-08T07:46:56;101572.53;;;17.50;100.00
63405;BME280;49541;57.840;12.306;2023-09-08T07:51:56;101558.09;;;18.21;100.00
63405;BME280;49541;57.840;12.306;2023-09-08T07:56:56;101544.13;;;18.60;100.00
63405;BME280;49541;57.840;12.306;2023-09-08T08:01:56;101527.41;;;18.82;100.00
63405;BME280;49541;57.840;12.306;2023-09-08T08:06:57;101519.03;;;19.27;100.00
63405;BME280;49541;57.840;12.306;2023-09-08T08:11:57;101518.03;;;19.19;100.00
63405;BME280;49541;57.840;12.306;2023-09-08T08:16:57;101516.00;;;19.21;100.00
63405;BME280;49541;57.840;12.306;2023-09-08T08:21:57;101511.44;;;19.22;100.00
63405;BME280;49541;57.840;12.306;2023-09-08T08:26:58;101509.59;;;19.47;100.00
63405;BME280;49541;57.840;12.306;2023-09-08T08:31:58;101506.38;;;19.68;100.00
63405;BME280;49541;57.840;12.306;2023-09-08T08:36:58;101503.22;;;20.29;100.00
63405;BME280;49541;57.840;12.306;2023-09-08T08:41:59;101483.66;;;20.50;100.00
63405;BME280;49541;57.840;12.306;2023-09-08T08:47:09;101486.41;;;21.04;100.00
63405;BME280;49541;57.840;12.306;2023-09-08T08:52:10;101479.78;;;21.30;100.00
63405;BME280;49541;57.840;12.306;2023-09-08T08:57:11;101477.31;;;21.43;100.00
63405;BME280;49541;57.840;12.306;2023-09-08T09:02:11;101484.50;;;21.13;100.00
63405;BME280;49541;57.840;12.306;2023-09-08T09:07:12;101470.28;;;21.86;100.00
63405;BME280;49541;57.840;12.306;2023-09-08T09:12:12;101467.41;;;22.54;100.00
63405;BME280;49541;57.840;12.306;2023-09-08T09:17:13;101462.69;;;22.78;100.00
63405;BME280;49541;57.840;12.306;2023-09-08T09:22:14;101460.38;;;22.96;100.00
63405;BME280;49541;57.840;12.306;2023-09-08T09:27:19;101446.03;;;23.80;100.00
63405;BME280;49541;57.840;12.306;2023-09-08T09:32:24;101446.28;;;24.27;100.00
63405;BME280;49541;57.840;12.306;2023-09-08T09:37:25;101436.53;;;24.46;100.00
63405;BME280;49541;57.840;12.306;2023-09-08T09:42:25;101445.16;;;24.63;100.00
63405;BME280;49541;57.840;12.306;2023-09-08T09:47:27;101427.63;;;24.79;100.00
63405;BME280;49541;57.840;12.306;2023-09-08T09:52:28;101431.59;;;24.76;100.00
63405;BME280;49541;57.840;12.306;2023-09-08T09:57:31;101429.09;;;24.81;100.00
63405;BME280;49541;57.840;12.306;2023-09-08T10:02:31;101412.16;;;25.32;100.00
63405;BME280;49541;57.840;12.306;2023-09-08T10:07:31;101407.69;;;26.30;100.00
63405;BME280;49541;57.840;12.306;2023-09-08T10:12:32;101410.59;;;25.90;100.00
63405;BME280;49541;57.840;12.306;2023-09-08T10:17:35;101416.41;;;26.45;100.00
63405;BME280;49541;57.840;12.306;2023-09-08T10:22:35;101410.34;;;26.43;100.00
63405;BME280;49541;57.840;12.306;2023-09-08T10:27:36;101420.53;;;27.00;100.00
63405;BME280;49541;57.840;12.306;2023-09-08T10:32:36;101421.56;;;27.49;100.00
63405;BME280;49541;57.840;12.306;2023-09-08T10:37:37;101427.72;;;27.88;92.64
63405;BME280;49541;57.840;12.306;2023-09-08T10:42:40;101422.75;;;28.15;80.09
63405;BME280;49541;57.840;12.306;2023-09-08T10:53:03;101409.31;;;27.95;76.30
63405;BME280;49541;57.840;12.306;2023-09-08T10:58:04;101396.03;;;27.98;78.13
63405;BME280;49541;57.840;12.306;2023-09-08T11:03:05;101393.00;;;28.79;73.55
63405;BME280;49541;57.840;12.306;2023-09-08T11:08:06;101386.00;;;28.83;71.47
63405;BME280;49541;57.840;12.306;2023-09-08T11:13:06;101375.28;;;29.05;68.91
63405;BME280;49541;57.840;12.306;2023-09-08T11:18:07;101384.84;;;29.14;65.77
63405;BME280;49541;57.840;12.306;2023-09-08T11:23:07;101376.63;;;28.61;59.19
63405;BME280;49541;57.840;12.306;2023-09-08T11:28:07;101371.66;;;28.39;63.86
63405;BME280;49541;57.840;12.306;2023-09-08T11:33:14;101385.69;;;29.15;62.08
63405;BME280;49541;57.840;12.306;2023-09-08T11:38:14;101385.22;;;29.42;56.80
63405;BME280;49541;57.840;12.306;2023-09-08T11:43:15;101381.13;;;29.09;58.23
63405;BME280;49541;57.840;12.306;2023-09-08T11:48:15;101385.66;;;29.74;55.15
63405;BME280;49541;57.840;12.306;2023-09-08T11:53:18;101393.69;;;29.52;56.19
63405;BME280;49541;57.840;12.306;2023-09-08T11:58:19;101394.19;;;30.58;54.00
63405;BME280;49541;57.840;12.306;2023-09-08T12:03:19;101404.50;;;31.70;48.84
63405;BME280;49541;57.840;12.306;2023-09-08T12:08:20;101409.94;;;32.31;46.85
63405;BME280;49541;57.840;12.306;2023-09-08T12:13:21;101422.19;;;32.18;46.71
63405;BME280;49541;57.840;12.306;2023-09-08T12:18:36;101407.03;;;30.12;47.72
63405;BME280;49541;57.840;12.306;2023-09-08T12:23:46;101410.09;;;30.39;50.23
63405;BME280;49541;57.840;12.306;2023-09-08T12:28:48;101424.22;;;31.83;46.59
63405;BME280;49541;57.840;12.306;2023-09-08T12:33:48;101410.22;;;31.46;44.88
63405;BME280;49541;57.840;12.306;2023-09-08T12:38:51;101417.53;;;31.40;46.31
63405;BME280;49541;57.840;12.306;2023-09-08T12:43:52;101396.41;;;32.02;44.91
63405;BME280;49541;57.840;12.306;2023-09-08T12:48:52;101397.47;;;33.52;41.05
63405;BME280;49541;57.840;12.306;2023-09-08T12:53:53;101397.03;;;34.44;38.25
63405;BME280;49541;57.840;12.306;2023-09-08T12:58:53;101389.59;;;34.75;36.44
63405;BME280;49541;57.840;12.306;2023-09-08T13:03:53;101380.44;;;34.34;37.57
63405;BME280;49541;57.840;12.306;2023-09-08T13:08:54;101371.09;;;34.81;37.69
63405;BME280;49541;57.840;12.306;2023-09-08T13:13:54;101367.69;;;35.35;36.11
63405;BME280;49541;57.840;12.306;2023-09-08T13:18:54;101369.94;;;36.03;34.36
63405;BME280;49541;57.840;12.306;2023-09-08T13:23:55;101367.09;;;36.19;35.14
63405;BME280;49541;57.840;12.306;2023-09-08T13:28:55;101369.19;;;36.72;32.37
63405;BME280;49541;57.840;12.306;2023-09-08T13:33:58;101354.56;;;36.26;33.27
63405;BME280;49541;57.840;12.306;2023-09-08T13:38:59;101355.56;;;35.96;34.64
63405;BME280;49541;57.840;12.306;2023-09-08T13:44:00;101333.44;;;35.05;36.88
63405;BME280;49541;57.840;12.306;2023-09-08T13:49:00;101337.47;;;35.64;36.46
63405;BME280;49541;57.840;12.306;2023-09-08T13:54:01;101336.13;;;35.36;35.51
63405;BME280;49541;57.840;12.306;2023-09-08T13:59:01;101343.97;;;35.14;37.39
63405;BME280;49541;57.840;12.306;2023-09-08T14:04:01;101331.00;;;34.68;37.87
63405;BME280;49541;57.840;12.306;2023-09-08T14:09:02;101322.94;;;34.46;39.45
63405;BME280;49541;57.840;12.306;2023-09-08T14:14:02;101327.53;;;33.26;41.78
63405;BME280;49541;57.840;12.306;2023-09-08T14:19:03;101314.06;;;32.92;42.30
63405;BME280;49541;57.840;12.306;2023-09-08T14:24:04;101321.50;;;32.54;43.78
63405;BME280;49541;57.840;12.306;2023-09-08T14:29:04;101307.31;;;32.73;43.24
63405;BME280;49541;57.840;12.306;2023-09-08T14:34:04;101303.69;;;31.86;46.59
63405;BME280;49541;57.840;12.306;2023-09-08T14:39:04;101306.41;;;31.80;46.82
63405;BME280;49541;57.840;12.306;2023-09-08T14:44:04;101298.06;;;31.31;49.33
63405;BME280;49541;57.840;12.306;2023-09-08T14:49:05;101288.09;;;29.66;54.13
63405;BME280;49541;57.840;12.306;2023-09-08T14:54:05;101291.75;;;28.84;58.57
63405;BME280;49541;57.840;12.306;2023-09-08T14:59:05;101283.69;;;28.89;60.53
63405;BME280;49541;57.840;12.306;2023-09-08T15:04:05;101282.84;;;29.76;59.95
63405;BME280;49541;57.840;12.306;2023-09-08T15:09:05;101287.00;;;30.36;54.84
63405;BME280;49541;57.840;12.306;2023-09-08T15:14:06;101287.47;;;30.67;52.48
63405;BME280;49541;57.840;12.306;2023-09-08T15:19:06;101281.09;;;30.61;54.14
63405;BME280;49541;57.840;12.306;2023-09-08T15:24:06;101269.41;;;30.20;55.99
63405;BME280;49541;57.840;12.306;2023-09-08T15:29:06;101262.81;;;29.64;58.15
63405;BME280;49541;57.840;12.306;2023-09-08T15:34:07;101260.25;;;29.46;61.48
63405;BME280;49541;57.840;12.306;2023-09-08T15:39:07;101251.25;;;29.74;61.66
63405;BME280;49541;57.840;12.306;2023-09-08T15:44:08;101252.34;;;29.90;60.19
63405;BME280;49541;57.840;12.306;2023-09-08T15:49:08;101257.09;;;29.77;60.03
63405;BME280;49541;57.840;12.306;2023-09-08T15:54:08;101248.03;;;29.94;59.33
63405;BME280;49541;57.840;12.306;2023-09-08T15:59:08;101241.47;;;29.66;60.21
63405;BME280;49541;57.840;12.306;2023-09-08T16:04:09;101240.69;;;29.13;63.60
63405;BME280;49541;57.840;12.306;2023-09-08T16:09:10;101256.50;;;28.76;66.11
63405;BME280;49541;57.840;12.306;2023-09-08T16:14:10;101238.66;;;28.62;67.13
63405;BME280;49541;57.840;12.306;2023-09-08T16:19:10;101255.56;;;28.58;65.37
63405;BME280;49541;57.840;12.306;2023-09-08T16:24:10;101248.84;;;28.31;69.91
63405;BME280;49541;57.840;12.306;2023-09-08T16:29:10;101243.47;;;28.48;69.49
63405;BME280;49541;57.840;12.306;2023-09-08T16:34:11;101233.53;;;28.65;73.32
63405;BME280;49541;57.840;12.306;2023-09-08T16:39:11;101235.66;;;29.22;70.25
63405;BME280;49541;57.840;12.306;2023-09-08T16:44:11;101235.66;;;29.10;68.91
63405;BME280;49541;57.840;12.306;2023-09-08T16:49:11;101227.81;;;29.14;66.92
63405;BME280;49541;57.840;12.306;2023-09-08T16:54:11;101221.59;;;29.18;73.29
63405;BME280;49541;57.840;12.306;2023-09-08T16:59:12;101220.59;;;29.36;74.48
63405;BME280;49541;57.840;12.306;2023-09-08T17:04:12;101230.13;;;29.34;76.43
63405;BME280;49541;57.840;12.306;2023-09-08T17:09:13;101227.81;;;29.14;75.97
63405;BME280;49541;57.840;12.306;2023-09-08T17:14:14;101221.00;;;29.05;77.94
63405;BME280;49541;57.840;12.306;2023-09-08T17:19:14;101219.72;;;28.72;82.49
63405;BME280;49541;57.840;12.306;2023-09-08T17:24:14;101221.50;;;28.54;82.80
63405;BME280;49541;57.840;12.306;2023-09-08T17:29:14;101230.47;;;28.19;85.82
63405;BME280;49541;57.840;12.306;2023-09-08T17:34:18;101227.56;;;28.03;84.03
63405;BME280;49541;57.840;12.306;2023-09-08T17:39:19;101234.13;;;28.02;82.46
63405;BME280;49541;57.840;12.306;2023-09-08T17:44:19;101231.25;;;27.66;83.81
63405;BME280;49541;57.840;12.306;2023-09-08T17:49:20;101211.72;;;27.32;86.90
63405;BME280;49541;57.840;12.306;2023-09-08T17:54:20;101200.59;;;27.09;87.59
63405;BME280;49541;57.840;12.306;2023-09-08T17:59:20;101198.59;;;26.61;91.69
63405;BME280;49541;57.840;12.306;2023-09-08T18:04:22;101191.16;;;26.18;94.09
63405;BME280;49541;57.840;12.306;2023-09-08T18:09:22;101197.97;;;26.08;95.18
63405;BME280;49541;57.840;12.306;2023-09-08T18:14:23;101210.50;;;26.16;95.78
63405;BME280;49541;57.840;12.306;2023-09-08T18:19:23;101215.72;;;25.86;92.29
63405;BME280;49541;57.840;12.306;2023-09-08T18:24:23;101211.78;;;25.37;94.44
63405;BME280;49541;57.840;12.306;2023-09-08T18:29:23;101205.56;;;25.03;99.79
63405;BME280;49541;57.840;12.306;2023-09-08T18:34:23;101211.50;;;24.73;100.00
63405;BME280;49541;57.840;12.306;2023-09-08T18:39:24;101201.91;;;24.57;100.00
63405;BME280;49541;57.840;12.306;2023-09-08T18:44:24;101201.88;;;24.64;100.00
63405;BME280;49541;57.840;12.306;2023-09-08T18:49:24;101208.59;;;24.48;100.00
63405;BME280;49541;57.840;12.306;2023-09-08T18:54:24;101216.09;;;24.26;100.00
63405;BME280;49541;57.840;12.306;2023-09-08T18:59:29;101215.25;;;24.19;100.00
63405;BME280;49541;57.840;12.306;2023-09-08T19:04:29;101219.41;;;23.81;100.00
63405;BME280;49541;57.840;12.306;2023-09-08T19:09:29;101216.34;;;23.56;100.00
63405;BME280;49541;57.840;12.306;2023-09-08T19:14:30;101214.63;;;23.42;100.00
63405;BME280;49541;57.840;12.306;2023-09-08T19:19:30;101209.22;;;23.00;100.00
63405;BME280;49541;57.840;12.306;2023-09-08T19:24:30;101201.16;;;23.20;100.00
63405;BME280;49541;57.840;12.306;2023-09-08T19:29:30;101210.72;;;23.09;100.00
63405;BME280;49541;57.840;12.306;2023-09-08T19:34:30;101214.72;;;22.85;100.00
63405;BME280;49541;57.840;12.306;2023-09-08T19:39:31;101197.88;;;22.62;100.00
63405;BME280;49541;57.840;12.306;2023-09-08T19:44:31;101200.38;;;22.35;100.00
63405;BME280;49541;57.840;12.306;2023-09-08T19:49:32;101198.69;;;21.91;100.00
63405;BME280;49541;57.840;12.306;2023-09-08T19:54:32;101193.25;;;22.13;100.00
63405;BME280;49541;57.840;12.306;2023-09-08T19:59:32;101188.59;;;22.06;100.00
63405;BME280;49541;57.840;12.306;2023-09-08T20:04:32;101189.47;;;22.07;100.00
63405;BME280;49541;57.840;12.306;2023-09-08T20:09:32;101194.59;;;21.80;100.00
63405;BME280;49541;57.840;12.306;2023-09-08T20:14:33;101185.22;;;21.61;100.00
63405;BME280;49541;57.840;12.306;2023-09-08T20:19:33;101178.53;;;21.57;100.00
63405;BME280;49541;57.840;12.306;2023-09-08T20:24:33;101178.84;;;21.33;100.00
63405;BME280;49541;57.840;12.306;2023-09-08T20:29:33;101178.38;;;21.14;100.00
63405;BME280;49541;57.840;12.306;2023-09-08T20:34:33;101174.28;;;20.89;100.00
63405;BME280;49541;57.840;12.306;2023-09-08T20:39:34;101164.25;;;20.82;100.00
63405;BME280;49541;57.840;12.306;2023-09-08T20:44:34;101169.75;;;20.74;100.00
63405;BME280;49541;57.840;12.306;2023-09-08T20:49:34;101163.38;;;20.67;100.00
63405;BME280;49541;57.840;12.306;2023-09-08T20:54:34;101164.00;;;20.54;100.00
63405;BME280;49541;57.840;12.306;2023-09-08T20:59:34;101161.69;;;20.28;100.00
63405;BME280;49541;57.840;12.306;2023-09-08T21:04:35;101168.00;;;20.05;100.00
63405;BME280;49541;57.840;12.306;2023-09-08T21:09:35;101177.84;;;19.98;100.00
63405;BME280;49541;57.840;12.306;2023-09-08T21:14:35;101177.53;;;19.93;100.00
63405;BME280;49541;57.840;12.306;2023-09-08T21:19:35;101179.25;;;20.32;100.00
63405;BME280;49541;57.840;12.306;2023-09-08T21:24:35;101177.72;;;20.15;100.00
63405;BME280;49541;57.840;12.306;2023-09-08T21:29:36;101176.97;;;20.21;100.00
63405;BME280;49541;57.840;12.306;2023-09-08T21:34:36;101171.94;;;20.18;100.00
63405;BME280;49541;57.840;12.306;2023-09-08T21:39:36;101181.88;;;20.40;100.00
63405;BME280;49541;57.840;12.306;2023-09-08T21:44:37;101172.09;;;20.39;100.00
63405;BME280;49541;57.840;12.306;2023-09-08T21:49:37;101170.28;;;19.71;100.00
63405;BME280;49541;57.840;12.306;2023-09-08T21:54:37;101163.13;;;19.78;100.00
63405;BME280;49541;57.840;12.306;2023-09-08T21:59:38;101162.94;;;19.48;100.00
63405;BME280;49541;57.840;12.306;2023-09-08T22:04:38;101161.03;;;19.34;100.00
63405;BME280;49541;57.840;12.306;2023-09-08T22:09:38;101162.81;;;19.10;100.00
63405;BME280;49541;57.840;12.306;2023-09-08T22:14:38;101154.00;;;19.16;100.00
63405;BME280;49541;57.840;12.306;2023-09-08T22:19:38;101149.25;;;19.18;100.00
63405;BME280;49541;57.840;12.306;2023-09-08T22:24:39;101147.59;;;19.17;100.00
63405;BME280;49541;57.840;12.306;2023-09-08T22:29:39;101155.16;;;19.22;100.00
63405;BME280;49541;57.840;12.306;2023-09-08T22:34:39;101151.06;;;18.95;100.00
63405;BME280;49541;57.840;12.306;2023-09-08T22:39:39;101147.38;;;18.88;100.00
63405;BME280;49541;57.840;12.306;2023-09-08T22:44:40;101152.06;;;19.02;100.00
63405;BME280;49541;57.840;12.306;2023-09-08T22:49:56;101147.34;;;19.04;100.00
63405;BME280;49541;57.840;12.306;2023-09-08T22:54:57;101148.03;;;18.90;100.00
63405;BME280;49541;57.840;12.306;2023-09-08T22:59:57;101153.31;;;19.54;100.00
63405;BME280;49541;57.840;12.306;2023-09-08T23:04:57;101142.72;;;18.65;100.00
63405;BME280;49541;57.840;12.306;2023-09-08T23:09:57;101138.69;;;18.45;100.00
63405;BME280;49541;57.840;12.306;2023-09-08T23:14:58;101154.25;;;18.18;100.00
63405;BME280;49541;57.840;12.306;2023-09-08T23:19:58;101150.19;;;18.06;100.00
63405;BME280;49541;57.840;12.306;2023-09-08T23:24:58;101151.03;;;17.98;100.00
63405;BME280;49541;57.840;12.306;2023-09-08T23:29:58;101151.03;;;17.98;100.00
63405;BME280;49541;57.840;12.306;2023-09-08T23:34:58;101148.00;;;17.85;100.00
63405;BME280;49541;57.840;12.306;2023-09-08T23:40:00;101151.50;;;17.77;100.00
63405;BME280;49541;57.840;12.306;2023-09-08T23:45:00;101149.19;;;17.90;100.00
63405;BME280;49541;57.840;12.306;2023-09-08T23:50:00;101142.75;;;17.83;100.00
63405;BME280;49541;57.840;12.306;2023-09-08T23:55:00;101140.22;;;17.81;100.00
